Terminal Aerodrome Forecast
Issued by NWS Blacksburg, VA

Current Version | Previous Version | Text Only | Print | Product List | Glossary Off
Versions: 1 2 3 4 5 6 7 8 9 10 11 12 13 14 15 16 17 18 19 20 21 22 23 24 25 26 27 28 29 30 31 32 33 34 35 36 37 38 39 40

000
FTUS41 KRNK 261725
TAFBLF
TAF
KBLF 261725Z 2618/2718 28009KT P6SM SCT045 BKN150
     FM270300 25007KT P6SM BKN060
     FM271000 27007KT 5SM -SHRA VCTS SCT020CB OVC050
     FM271600 26010KT P6SM VCSH SCT015 BKN035=

USA.gov is the U.S. government's official web portal to all federal, state and local government web resources and services.